Pagrindinis puslapis
METAR-TAF:

METAR-TAF

Oro uostai :

Silvio Pettirossi tarptautinis oro uostas

Asunsjonas, Paragvajus

platuma: 25-16S, ilguma: 057-38W, Aukštis: 101 m

Dabartinis oras

Ataskaita buvo paskelbta 24 minutes, ne 09:00 UTC
Vėjas 3 kt nuo kintamojo kryptimis
Temperatūra 22°C
Drėgmė 88%
Slėgis 1009 hPa
Matomumas 10 km arba daugiau
nėra debesų žemiau 1500 m ir nėra kamuolinių lietaus debesų

METAR: SGAS 240900Z VRB03KT CAVOK 22/20 Q1009

Laikas: 06:24 (09:24 UTC)

Prognozė

Ataskaita buvo paskelbta 4 valandos ir 24 minutes, ne 05:00 UTC
Prognozė galioja nuo 24 metu 06 UTC su 25 metu 06 UTC
Vėjas kt iš Šiaurės
Matomumas: 6000 m
Tikimybė 40% :
Laikinai
nuo 24 metu 08 UTC su 24 metu 10 UTC
Matomumas: 1000 m
rūkas
Tapsmas
nuo 24 metu 12 UTC su 24 metu 14 UTC
Vėjas 8 kt iš Pietryčių
Matomumas 10 km arba daugiau
Išsisklaidę debesys ne aukštis 2700 ft

TAF: SGAS 240500Z 2406/2506 00000KT 6000 NSC TX33/2419Z TN20/2409Z PROB40 TEMPO 2408/2410 1000 FG NSC BECMG 2412/2414 14008KT 9999 SCT027

Orai ataskaitas ir orų prognozės (METAR, TAF).

turimą stotys yra geltonos ir raudonos taškus žemėlapyje.

Perkelti pele per norėdami pamatyti stoties vardą.

Tada spustelėkite, norėdami matyti oro stebėjimo ir prognozės.

Norėdami pakeisti žemėlapį: spustelėkite ant žalios mygtukų su juodo kryžiaus žemyn,; žalią mygtuką su brūkšneliu, jei norite nutolinti; arba žalių rodyklių gretimoms žemėlapius.


METAR-TAF: